San Rafael, Argentina
Current Conditions -  °F | °C
As of 9:00 AM on Friday 28 Nov 2014 (Local Time) from SAME Reporting Station
Clear Clear  
Wind Chill: 75°   Ceiling: Unl
Heat Index: 75°   Visibility: 6mi
Dew Point: 39°   Wind: 17mph
Humidity: 27%   Direction: 160°SSE
Pressure: 29.91"   Gusts: 29mph
Location:  34.62°S, 68.34°W
Report Text: SAME 281200Z 16015G25KT CAVOK 24/04 Q1013
Loading
Personal Weather Stations






























Interactive Weather Map New forecast layout! Learn more

10-Day Weather Forecast

Advertisements
Track Severe Weather on mobile